createdAt,value
2022-08-07T00:02:36.810Z,57.76
2022-08-07T00:07:23.414Z,58.66
2022-08-07T00:12:30.413Z,60.00
2022-08-07T00:17:35.896Z,60.49
2022-08-07T00:22:38.841Z,69.58
2022-08-07T00:27:52.425Z,62.37
2022-08-07T00:32:58.347Z,52.84
2022-08-07T00:38:01.586Z,53.47
2022-08-07T00:43:09.906Z,54.77
2022-08-07T00:48:13.578Z,56.27
2022-08-07T00:53:16.784Z,57.92
2022-08-07T00:58:21.406Z,59.30
2022-08-07T01:03:56.617Z,60.39
2022-08-07T01:08:53.661Z,60.45
2022-08-07T01:13:58.630Z,61.51
2022-08-07T01:19:01.421Z,71.54
2022-08-07T01:24:07.996Z,61.15
2022-08-07T01:29:14.168Z,51.19
2022-08-07T01:34:20.695Z,52.23
2022-08-07T01:39:41.154Z,54.54
2022-08-07T01:44:49.618Z,55.63
2022-08-07T01:49:54.702Z,57.57
2022-08-07T01:55:00.929Z,59.05
2022-08-07T02:00:12.772Z,59.98
2022-08-07T02:05:43.344Z,70.34
2022-08-07T02:10:58.109Z,60.53
2022-08-07T02:16:03.565Z,50.71
2022-08-07T02:21:16.039Z,51.94
2022-08-07T02:26:32.854Z,53.38
2022-08-07T02:31:38.851Z,54.83
2022-08-07T02:36:45.326Z,56.69
2022-08-07T02:41:50.696Z,58.31
2022-08-07T02:46:59.347Z,59.66
2022-08-07T02:52:06.837Z,69.53
2022-08-07T02:57:14.279Z,61.70
2022-08-07T03:02:18.219Z,51.31
2022-08-07T03:07:25.272Z,51.61
2022-08-07T03:12:46.984Z,53.21
2022-08-07T03:17:53.508Z,55.06
2022-08-07T03:22:58.722Z,57.20
2022-08-07T03:28:09.481Z,58.55
2022-08-07T03:33:32.236Z,59.76
2022-08-07T03:38:45.256Z,68.46
2022-08-07T03:43:57.445Z,62.25
2022-08-07T03:49:03.320Z,53.87
2022-08-07T03:54:35.590Z,55.17
2022-08-07T03:59:29.650Z,57.25
2022-08-07T04:04:32.897Z,58.75
2022-08-07T04:09:45.103Z,66.70
2022-08-07T04:14:53.913Z,58.92
2022-08-07T04:19:59.066Z,56.97
2022-08-07T04:25:02.607Z,60.80
2022-08-07T04:30:11.861Z,65.03
2022-08-07T04:35:24.876Z,57.71
2022-08-07T04:40:29.939Z,56.13
2022-08-07T04:46:02.261Z,60.33
2022-08-07T04:51:12.810Z,64.42
2022-08-07T04:58:13.817Z,57.82
2022-08-07T05:02:01.255Z,57.19
2022-08-07T05:07:20.574Z,59.97
2022-08-07T05:12:53.050Z,66.32
2022-08-07T05:18:01.771Z,57.31
2022-08-07T05:23:30.146Z,55.84
2022-08-07T05:28:35.847Z,58.39
2022-08-07T05:33:40.410Z,60.16
2022-08-07T05:38:59.412Z,64.85
2022-08-07T05:44:12.225Z,56.35
2022-08-07T05:49:16.243Z,57.38
2022-08-07T05:54:30.552Z,60.92
2022-08-07T05:59:47.334Z,67.88
2022-08-07T06:05:11.016Z,57.26
2022-08-07T06:10:18.943Z,59.10
2022-08-07T06:15:39.312Z,63.86
2022-08-07T06:20:50.436Z,56.91
2022-08-07T06:26:13.634Z,59.47
2022-08-07T06:31:18.218Z,62.98
2022-08-07T06:36:27.480Z,63.22
2022-08-07T06:42:10.384Z,54.48
2022-08-07T06:47:15.482Z,56.87
2022-08-07T06:52:31.557Z,58.83
2022-08-07T06:57:47.678Z,59.68
2022-08-07T07:03:00.924Z,60.18
2022-08-07T07:08:07.323Z,60.34
2022-08-07T07:13:58.091Z,60.17
2022-08-07T07:19:40.978Z,59.87
2022-08-07T07:24:31.974Z,59.29
2022-08-07T07:29:56.428Z,59.10
2022-08-07T07:35:04.035Z,58.57
2022-08-07T07:40:15.317Z,57.71
2022-08-07T07:46:33.383Z,56.75
2022-08-07T07:50:47.433Z,55.97
2022-08-07T07:56:00.961Z,55.60
2022-08-07T08:02:03.603Z,55.43
2022-08-07T08:06:31.262Z,55.15
2022-08-07T08:11:59.196Z,54.39
2022-08-07T08:17:56.738Z,54.21
2022-08-07T08:22:55.845Z,52.48
2022-08-07T08:28:03.862Z,51.98
2022-08-07T08:33:15.050Z,51.55
2022-08-07T08:38:25.788Z,49.22
2022-08-07T08:43:55.861Z,48.86
2022-08-07T08:49:17.226Z,47.26
2022-08-07T08:54:29.142Z,47.20
2022-08-07T08:59:51.229Z,47.23
2022-08-07T09:05:04.934Z,45.19
2022-08-07T09:10:14.722Z,45.00
2022-08-07T09:16:22.441Z,44.63
2022-08-07T09:21:34.152Z,44.52
2022-08-07T09:27:16.686Z,44.70
2022-08-07T09:32:35.410Z,43.87
2022-08-07T09:38:04.472Z,42.58
2022-08-07T09:44:03.463Z,41.15
2022-08-07T09:50:03.007Z,41.70
2022-08-07T09:54:56.535Z,40.58
2022-08-07T10:00:05.521Z,39.69
2022-08-07T10:05:17.059Z,39.35
2022-08-07T10:11:00.331Z,38.85
2022-08-07T10:16:21.340Z,38.04
2022-08-07T10:22:02.788Z,38.19
2022-08-07T10:27:17.746Z,38.77
2022-08-07T10:32:53.337Z,39.07
2022-08-07T10:38:42.284Z,38.79
2022-08-07T10:44:28.747Z,38.47
2022-08-07T10:49:51.269Z,38.93
2022-08-07T10:55:26.987Z,37.48
2022-08-07T11:00:43.019Z,37.95
2022-08-07T11:05:58.798Z,37.49
2022-08-07T11:11:11.702Z,37.70
2022-08-07T11:16:29.975Z,37.56
2022-08-07T11:22:06.352Z,37.03
2022-08-07T11:28:02.665Z,35.65
2022-08-07T11:33:53.925Z,34.98
2022-08-07T11:39:58.934Z,33.34
2022-08-07T11:45:09.391Z,34.17
2022-08-07T11:50:57.905Z,34.45
2022-08-07T11:56:28.117Z,34.92
2022-08-07T12:01:59.795Z,34.87
2022-08-07T12:07:27.692Z,35.05
2022-08-07T12:12:47.989Z,36.36
2022-08-07T12:18:08.138Z,36.99
2022-08-07T12:24:07.615Z,37.14
2022-08-07T12:29:20.267Z,37.14
2022-08-07T12:34:29.635Z,37.71
2022-08-07T12:39:42.106Z,38.65
2022-08-07T12:44:48.918Z,39.40
2022-08-07T12:50:04.940Z,39.72
2022-08-07T12:56:02.096Z,40.15
2022-08-07T13:01:17.226Z,40.36
2022-08-07T13:07:00.127Z,40.77
2022-08-07T13:12:15.150Z,40.84
2022-08-07T13:17:40.600Z,40.85
2022-08-07T13:22:56.512Z,40.76
2022-08-07T13:28:12.802Z,40.79
2022-08-07T13:34:32.872Z,40.54
2022-08-07T13:39:28.193Z,40.63
2022-08-07T13:44:43.459Z,39.62
2022-08-07T13:50:33.595Z,39.00
2022-08-07T13:55:26.300Z,39.18
2022-08-07T14:00:39.693Z,39.23
2022-08-07T14:05:58.593Z,39.34
2022-08-07T14:11:14.907Z,39.41
2022-08-07T14:16:31.139Z,39.32
2022-08-07T14:22:04.095Z,39.16
2022-08-07T14:28:09.198Z,38.92
2022-08-07T14:32:41.220Z,38.91
2022-08-07T14:38:05.785Z,39.09
2022-08-07T14:43:55.169Z,39.30
2022-08-07T14:48:37.375Z,39.55
2022-08-07T14:59:13.934Z,39.66
2022-08-07T15:04:40.553Z,39.65
2022-08-07T15:10:02.018Z,39.63
2022-08-07T15:15:17.407Z,39.19
2022-08-07T15:20:54.922Z,39.14
2022-08-07T15:26:02.109Z,39.49
2022-08-07T15:31:09.777Z,39.89
2022-08-07T15:36:13.966Z,40.35
2022-08-07T15:52:36.736Z,39.52
2022-08-07T15:57:48.836Z,39.33
2022-08-07T16:02:57.510Z,39.27
2022-08-07T16:08:31.786Z,39.44
2022-08-07T16:14:17.257Z,39.69
2022-08-07T16:20:07.572Z,40.00
2022-08-07T16:25:55.450Z,40.07
2022-08-07T16:31:51.378Z,40.26
2022-08-07T16:38:03.426Z,40.07
2022-08-07T16:43:01.495Z,40.05
2022-08-07T16:50:20.255Z,40.32
2022-08-07T16:54:55.127Z,40.44
2022-08-07T17:00:16.094Z,40.32
2022-08-07T17:06:19.486Z,40.61
2022-08-07T17:12:04.680Z,40.93
2022-08-07T17:17:09.825Z,41.32
2022-08-07T17:22:30.304Z,41.69
2022-08-07T17:28:02.338Z,41.88
2022-08-07T17:34:09.815Z,42.25
2022-08-07T17:39:02.909Z,42.53
2022-08-07T17:44:34.047Z,42.85
2022-08-07T17:49:56.174Z,43.19
2022-08-07T17:55:04.438Z,43.72
2022-08-07T18:00:12.582Z,44.07
2022-08-07T18:06:01.931Z,44.43
2022-08-07T18:11:53.659Z,44.78
2022-08-07T18:16:57.434Z,45.16
2022-08-07T18:22:30.893Z,45.49
2022-08-07T18:27:55.583Z,45.77
2022-08-07T18:33:27.011Z,46.22
2022-08-07T18:38:57.382Z,46.70
2022-08-07T18:44:24.117Z,47.01
2022-08-07T18:50:35.000Z,47.48
2022-08-07T18:55:56.161Z,47.59
2022-08-07T19:02:17.373Z,48.23
2022-08-07T19:06:49.681Z,48.40
2022-08-07T19:12:05.475Z,48.79
2022-08-07T19:18:01.512Z,49.15
2022-08-07T19:23:03.182Z,49.69
2022-08-07T19:28:57.315Z,49.85
2022-08-07T19:33:56.507Z,50.45
2022-08-07T19:39:09.210Z,50.65
2022-08-07T19:44:21.685Z,50.93
2022-08-07T19:49:58.293Z,51.13
2022-08-07T19:54:56.401Z,51.56
2022-08-07T20:00:08.747Z,51.77
2022-08-07T20:05:19.810Z,52.10
2022-08-07T20:10:37.683Z,52.13
2022-08-07T20:15:57.759Z,52.20
2022-08-07T20:21:14.511Z,52.52
2022-08-07T20:26:29.852Z,52.76
2022-08-07T20:31:37.202Z,52.84
2022-08-07T20:36:44.090Z,53.21
2022-08-07T20:41:55.136Z,53.30
2022-08-07T20:47:05.768Z,53.54
2022-08-07T20:52:29.884Z,53.79
2022-08-07T20:58:04.046Z,53.70
2022-08-07T21:03:14.318Z,53.96
2022-08-07T21:08:37.001Z,53.34
2022-08-07T21:14:20.243Z,53.92
2022-08-07T21:19:14.073Z,53.96
2022-08-07T21:24:21.492Z,54.24
2022-08-07T21:29:39.584Z,53.66
2022-08-07T21:35:11.505Z,54.38
2022-08-07T21:40:26.094Z,54.66
2022-08-07T21:46:08.751Z,54.94
2022-08-07T21:51:32.269Z,54.85
2022-08-07T21:57:05.479Z,55.15
2022-08-07T22:02:19.257Z,55.52
2022-08-07T22:07:42.765Z,55.66
2022-08-07T22:13:01.291Z,55.81
2022-08-07T22:18:07.409Z,56.17
2022-08-07T22:23:25.102Z,56.30
2022-08-07T22:28:59.390Z,56.30
2022-08-07T22:34:12.983Z,56.77
2022-08-07T22:39:53.149Z,56.95
2022-08-07T22:45:02.027Z,57.11
2022-08-07T22:50:20.626Z,57.34
2022-08-07T22:56:13.098Z,57.56
2022-08-07T23:01:50.536Z,57.59
2022-08-07T23:07:39.761Z,57.97
2022-08-07T23:13:04.958Z,58.36
2022-08-07T23:18:32.129Z,58.53
2022-08-07T23:24:05.607Z,58.85
2022-08-07T23:29:43.782Z,58.88
2022-08-07T23:35:01.435Z,59.40
2022-08-07T23:40:26.344Z,59.49
2022-08-07T23:46:02.940Z,59.82
2022-08-07T23:52:59.667Z,59.68
2022-08-07T23:56:58.231Z,59.83
